Agawam, Massachusetts
Current Conditions -  °F | °C
As of 6:53 AM on Friday 28 Nov 2014 (Local Time) from KBAF Reporting Station
Overcast Overcast  
Wind Chill: -1°   Ceiling: 3800
Heat Index: -1°   Visibility: 10mi
Dew Point: -4°   Wind: 3mph
Humidity: 79%   Direction: 320°NW
Pressure: 30.05"   Gusts: NA
Location:  42.07°N, 72.61°W
Report Text: KBAF 281153Z 32003KT 10SM OVC038 M01/M04 A3005 RMK AO2 SLP185 I6000 T10111044 11011 21028 53011
Loading
Personal Weather Stations






























Interactive Weather Map New forecast layout! Learn more

10-Day Weather Forecast

Advertisements
Track Severe Weather on mobile